Time;durP1;ratioP1;P1;durP2;ratioP2;P2;SDS_P1;SDS_P2;PMS_P1;PMS_P2;Temp;Humidity;BMP_temperature;BMP_pressure;BME280_temperature;BME280_humidity;BME280_pressure;Samples;Min_cycle;Max_cycle;Signal;HPM_P1;HPM_P2
2021/11/07 00:00:00;;;;;;;57.40;15.07;;;;;;;-1.28;100.00;96249.16;5030448;28;20530;-78
2021/11/07 00:05:07;;;;;;;64.05;14.85;;;;;;;-0.90;100.00;96251.69;5029911;28;20072;-78
2021/11/07 00:07:45;;;;;;;45.40;15.20;;;;;;;-0.82;100.00;96253.38;5016962;28;20052;-78
2021/11/07 00:12:41;;;;;;;49.80;14.10;;;;;;;-0.62;100.00;96249.25;5030260;28;20491;-78
2021/11/07 00:15:07;;;;;;;35.95;13.73;;;;;;;-0.58;100.00;96239.34;5029210;28;20052;-79
2021/11/07 00:17:34;;;;;;;50.67;14.45;;;;;;;-0.50;100.00;96244.44;5029343;28;20053;-78
2021/11/07 00:27:49;;;;;;;60.17;14.88;;;;;;;-0.56;100.00;96243.38;5028922;28;20049;-78
2021/11/07 00:38:40;;;;;;;54.05;14.75;;;;;;;-0.54;100.00;96250.94;5022175;28;19925;-78
2021/11/07 00:43:45;;;;;;;45.05;15.40;;;;;;;-0.40;100.00;96246.75;5023528;28;20037;-78
2021/11/07 00:46:26;;;;;;;43.83;13.45;;;;;;;-0.32;100.00;96254.38;5028859;28;20050;-78
2021/11/07 00:54:48;;;;;;;55.38;16.25;;;;;;;-0.39;100.00;96269.00;4936531;28;20413;-79
2021/11/07 00:57:18;;;;;;;34.50;14.68;;;;;;;-0.32;100.00;96280.22;5000396;28;20057;-78
2021/11/07 01:00:02;;;;;;;39.33;13.07;;;;;;;-0.31;100.00;96281.84;5029433;28;20069;-78
2021/11/07 01:02:35;;;;;;;45.75;14.75;;;;;;;-0.34;100.00;96287.38;5010979;28;20519;-79
2021/11/07 01:05:09;;;;;;;37.90;15.82;;;;;;;-0.30;100.00;96286.03;5025333;28;20041;-79
2021/11/07 01:07:34;;;;;;;47.95;14.93;;;;;;;-0.10;100.00;96273.34;5044174;28;20116;-78
2021/11/07 01:10:00;;;;;;;42.70;16.27;;;;;;;-0.08;100.00;96270.56;5036770;28;20156;-78
2021/11/07 01:12:26;;;;;;;47.00;14.73;;;;;;;-0.06;100.00;96268.56;5013435;28;20088;-78
2021/11/07 01:14:55;;;;;;;49.78;15.63;;;;;;;-0.12;100.00;96269.31;5024808;28;20045;-78
2021/11/07 01:17:21;;;;;;;64.60;16.35;;;;;;;-0.18;100.00;96266.47;5011538;28;20038;-79
2021/11/07 01:19:48;;;;;;;59.67;14.10;;;;;;;-0.01;100.00;96276.59;5022097;28;20138;-78
2021/11/07 01:22:21;;;;;;;49.10;16.75;;;;;;;-0.06;100.00;96274.56;5029272;28;20041;-79
2021/11/07 01:24:53;;;;;;;54.40;16.05;;;;;;;-0.04;100.00;96282.16;5025056;28;20128;-78
2021/11/07 01:27:23;;;;;;;81.32;17.58;;;;;;;-0.06;100.00;96274.56;5028107;28;20033;-78
2021/11/07 01:29:53;;;;;;;57.83;16.60;;;;;;;0.01;100.00;96264.28;5025903;28;20041;-79
2021/11/07 01:32:21;;;;;;;71.78;17.73;;;;;;;0.00;100.00;96262.69;5023338;28;20067;-78
2021/11/07 01:42:16;;;;;;;63.85;18.08;;;;;;;0.06;100.00;96251.59;5026910;28;20046;-78
2021/11/07 01:44:49;;;;;;;70.93;17.70;;;;;;;0.14;100.00;96238.53;5028520;28;20514;-79
2021/11/07 01:47:16;;;;;;;57.70;16.85;;;;;;;0.27;100.00;96226.69;5028782;28;20076;-78
2021/11/07 01:49:43;;;;;;;38.65;15.98;;;;;;;0.38;100.00;96213.22;5018680;28;20612;-79
2021/11/07 01:52:10;;;;;;;43.72;16.38;;;;;;;0.37;100.00;96221.97;5030271;28;20065;-79
2021/11/07 01:57:23;;;;;;;46.75;14.32;;;;;;;0.41;100.00;96228.38;5019133;28;20096;-79
2021/11/07 01:59:57;;;;;;;39.45;14.18;;;;;;;0.54;100.00;96226.91;5027483;28;20113;-78
2021/11/07 02:02:29;;;;;;;47.50;15.13;;;;;;;0.41;100.00;96235.38;5026541;28;20461;-78
2021/11/07 02:04:56;;;;;;;33.97;15.07;;;;;;;0.45;100.00;96229.63;5026783;28;20045;-78
2021/11/07 02:07:22;;;;;;;37.85;15.43;;;;;;;0.52;100.00;96216.72;5036410;28;20071;-78
2021/11/07 02:09:48;;;;;;;40.35;14.85;;;;;;;0.54;100.00;96217.34;5020295;28;20052;-78
2021/11/07 02:12:15;;;;;;;37.65;11.98;;;;;;;0.47;100.00;96201.72;5028040;28;20048;-78
2021/11/07 02:14:41;;;;;;;28.85;13.15;;;;;;;0.44;100.00;96202.13;5020655;28;20041;-79
2021/11/07 02:17:08;;;;;;;29.80;12.38;;;;;;;0.38;100.00;96202.88;5027288;28;20132;-78
2021/11/07 02:19:34;;;;;;;29.38;13.38;;;;;;;0.35;100.00;96198.06;5028622;28;20131;-78
2021/11/07 02:22:00;;;;;;;31.08;12.95;;;;;;;0.24;100.00;96201.16;5029327;28;20045;-79
2021/11/07 02:24:27;;;;;;;28.92;13.85;;;;;;;0.20;100.00;96205.13;5032223;28;20044;-78
2021/11/07 02:26:56;;;;;;;24.48;12.02;;;;;;;0.22;100.00;96218.69;5036020;28;20076;-79
2021/11/07 02:29:23;;;;;;;25.35;12.13;;;;;;;0.26;100.00;96214.72;5051013;28;20052;-78
2021/11/07 02:31:50;;;;;;;22.13;10.48;;;;;;;0.25;100.00;96205.38;5052223;28;20117;-78
2021/11/07 02:34:16;;;;;;;28.40;11.88;;;;;;;0.15;100.00;96206.47;5020420;28;20075;-78
2021/11/07 02:36:43;;;;;;;26.77;11.82;;;;;;;0.15;100.00;96193.53;5013496;28;20050;-78
2021/11/07 02:39:10;;;;;;;25.08;11.77;;;;;;;0.14;100.00;96191.94;5029601;28;20576;-78
2021/11/07 02:41:36;;;;;;;25.23;12.63;;;;;;;0.11;100.00;96192.28;5024549;28;20046;-79
2021/11/07 02:44:01;;;;;;;21.17;10.35;;;;;;;0.12;100.00;96172.41;5027836;28;20045;-78
2021/11/07 02:46:27;;;;;;;21.05;10.25;;;;;;;0.05;100.00;96149.06;5032352;28;20645;-78
2021/11/07 02:48:56;;;;;;;26.35;11.27;;;;;;;0.01;100.00;96144.44;5032010;28;20046;-78
2021/11/07 02:51:26;;;;;;;24.40;11.80;;;;;;;0.02;100.00;96162.38;5031101;28;20187;-78
2021/11/07 02:53:52;;;;;;;23.92;11.98;;;;;;;-0.05;100.00;96171.88;5046438;28;20041;-78
2021/11/07 02:56:19;;;;;;;21.90;10.77;;;;;;;-0.08;100.00;96174.81;5030672;28;20042;-78
2021/11/07 02:58:46;;;;;;;18.02;9.43;;;;;;;-0.25;100.00;96177.63;5031864;28;20080;-78
2021/11/07 03:01:11;;;;;;;20.67;9.98;;;;;;;-0.30;100.00;96164.47;5031433;28;20048;-78
2021/11/07 03:03:37;;;;;;;23.73;10.32;;;;;;;-0.40;100.00;96174.31;5030375;28;20041;-78
2021/11/07 03:06:03;;;;;;;20.65;9.85;;;;;;;-0.32;100.00;96181.94;5024163;28;20041;-78
2021/11/07 03:08:30;;;;;;;22.33;10.32;;;;;;;-0.35;100.00;96182.31;5030376;28;20049;-78
2021/11/07 03:10:59;;;;;;;19.83;10.02;;;;;;;-0.32;100.00;96165.63;5017011;28;20073;-78
2021/11/07 03:13:25;;;;;;;26.25;10.25;;;;;;;-0.38;100.00;96151.66;5031360;28;20127;-78
2021/11/07 03:15:51;;;;;;;19.00;9.77;;;;;;;-0.43;100.00;96135.88;5027021;28;20046;-78
2021/11/07 03:18:18;;;;;;;24.45;10.65;;;;;;;-0.46;100.00;96128.50;5016303;28;20518;-78
2021/11/07 03:20:44;;;;;;;18.23;9.80;;;;;;;-0.46;100.00;96125.91;5011620;28;20042;-78
2021/11/07 03:23:10;;;;;;;27.20;11.27;;;;;;;-0.47;100.00;96114.00;5030298;28;20065;-78
2021/11/07 03:25:48;;;;;;;23.15;11.68;;;;;;;-0.49;100.00;96103.00;5030738;28;20044;-78
2021/11/07 03:28:14;;;;;;;22.40;9.25;;;;;;;-0.45;100.00;96109.41;5030363;28;20511;-78
2021/11/07 03:30:59;;;;;;;22.67;9.85;;;;;;;-0.56;100.00;96093.41;5031564;28;20045;-78
2021/11/07 03:33:33;;;;;;;19.92;8.68;;;;;;;-0.65;100.00;96076.41;5030896;28;20046;-78
2021/11/07 03:36:02;;;;;;;21.13;10.30;;;;;;;-0.72;100.00;96078.13;5030384;28;20045;-78
2021/11/07 03:38:28;;;;;;;23.60;10.90;;;;;;;-0.79;100.00;96092.78;5041543;28;20045;-78
2021/11/07 03:40:54;;;;;;;20.60;10.35;;;;;;;-0.75;100.00;96088.84;5022802;28;20052;-78
2021/11/07 03:43:19;;;;;;;22.50;10.65;;;;;;;-0.80;100.00;96080.84;5028949;28;20699;-78
2021/11/07 03:45:45;;;;;;;20.27;10.30;;;;;;;-0.87;100.00;96091.91;5030553;28;20041;-78
2021/11/07 03:48:11;;;;;;;24.55;11.05;;;;;;;-0.83;100.00;96092.34;5030626;28;20115;-79
2021/11/07 03:50:36;;;;;;;19.60;10.80;;;;;;;-0.87;100.00;96097.06;5030154;28;20038;-79
2021/11/07 03:53:02;;;;;;;22.75;10.63;;;;;;;-0.90;100.00;96110.34;5027394;28;20054;-78
2021/11/07 03:55:28;;;;;;;25.05;11.70;;;;;;;-0.95;100.00;96110.13;5029887;28;20568;-79
2021/11/07 03:57:54;;;;;;;26.40;10.88;;;;;;;-0.87;100.00;96107.41;5017834;28;20045;-79
2021/11/07 04:00:21;;;;;;;26.23;12.02;;;;;;;-0.92;100.00;96109.75;5009672;28;20500;-78
2021/11/07 04:02:49;;;;;;;22.75;10.95;;;;;;;-0.77;100.00;96101.16;5024655;28;20041;-78
2021/11/07 04:05:15;;;;;;;20.13;10.52;;;;;;;-0.64;100.00;96096.13;5029567;28;20046;-78
2021/11/07 04:07:40;;;;;;;20.67;10.88;;;;;;;-0.56;100.00;96093.41;5030584;28;20505;-79
2021/11/07 04:10:10;;;;;;;21.30;10.13;;;;;;;-0.45;100.00;96099.06;5030594;28;20530;-78
2021/11/07 04:12:35;;;;;;;20.45;10.15;;;;;;;-0.49;100.00;96082.31;5029907;28;20052;-78
2021/11/07 04:15:02;;;;;;;20.13;9.77;;;;;;;-0.49;100.00;96087.50;5029798;28;20046;-78
2021/11/07 04:17:28;;;;;;;19.15;10.07;;;;;;;-0.63;100.00;96087.38;5020454;28;20049;-78
2021/11/07 04:19:54;;;;;;;22.05;10.73;;;;;;;-0.67;100.00;96080.97;5017179;28;20101;-79
2021/11/07 04:22:19;;;;;;;19.77;9.63;;;;;;;-0.44;100.00;96067.06;5029494;28;20707;-78
2021/11/07 04:24:44;;;;;;;20.95;10.43;;;;;;;-0.39;100.00;96067.28;5029891;28;20045;-78
2021/11/07 04:27:10;;;;;;;19.15;9.35;;;;;;;-0.36;100.00;96062.56;5029618;28;20570;-78
2021/11/07 04:29:36;;;;;;;18.35;9.48;;;;;;;-0.40;100.00;96051.00;5030414;28;20045;-78
2021/11/07 04:32:03;;;;;;;18.90;9.15;;;;;;;-0.50;100.00;96039.34;5030073;28;20068;-78
2021/11/07 04:34:31;;;;;;;18.45;9.40;;;;;;;-0.59;100.00;96038.69;5029204;28;20487;-78
2021/11/07 04:36:57;;;;;;;20.52;9.52;;;;;;;-0.70;100.00;96050.34;5025492;28;20042;-78
2021/11/07 04:39:25;;;;;;;20.58;9.93;;;;;;;-0.86;100.00;96051.38;5009023;28;20049;-78
2021/11/07 04:41:51;;;;;;;18.73;9.35;;;;;;;-0.85;100.00;96052.16;5014991;28;20041;-79
2021/11/07 04:44:16;;;;;;;18.95;8.98;;;;;;;-0.88;100.00;96048.97;5028265;28;20551;-79
2021/11/07 04:46:42;;;;;;;20.27;10.02;;;;;;;-0.99;100.00;96041.72;5029483;28;20045;-79
2021/11/07 04:49:08;;;;;;;19.27;10.02;;;;;;;-1.02;100.00;96052.41;5011838;28;20053;-78
2021/11/07 04:51:33;;;;;;;27.33;11.82;;;;;;;-0.94;100.00;96054.84;5011940;28;20045;-78
2021/11/07 04:53:59;;;;;;;24.38;10.75;;;;;;;-0.75;100.00;96052.66;5027903;28;20514;-78
2021/11/07 04:56:25;;;;;;;22.13;9.82;;;;;;;-0.68;100.00;96056.09;5029010;28;20085;-78
2021/11/07 04:58:51;;;;;;;23.50;10.98;;;;;;;-0.57;100.00;96058.19;5010025;28;20046;-78
2021/11/07 05:01:17;;;;;;;23.50;9.82;;;;;;;-0.68;100.00;96063.84;5025350;28;20050;-78
2021/11/07 05:03:43;;;;;;;21.17;10.57;;;;;;;-0.60;100.00;96058.56;5029012;28;20043;-79
2021/11/07 05:06:08;;;;;;;20.55;9.90;;;;;;;-0.55;100.00;96064.00;5028910;28;20075;-78
2021/11/07 05:08:34;;;;;;;18.00;9.15;;;;;;;-0.63;100.00;96065.88;5029116;28;20503;-78
2021/11/07 05:11:00;;;;;;;21.30;9.40;;;;;;;-0.83;100.00;96065.69;5028494;28;20120;-78
2021/11/07 05:13:25;;;;;;;20.88;9.48;;;;;;;-0.82;100.00;96067.31;5029402;28;20730;-78
2021/11/07 05:15:51;;;;;;;19.50;9.75;;;;;;;-0.95;100.00;96076.53;5026931;28;20038;-79
2021/11/07 05:18:18;;;;;;;18.00;9.35;;;;;;;-0.95;100.00;96073.94;5014067;28;20049;-79
2021/11/07 05:20:45;;;;;;;20.27;9.77;;;;;;;-0.88;100.00;96074.81;5009579;28;20104;-79
2021/11/07 05:23:11;;;;;;;20.70;9.38;;;;;;;-0.91;100.00;96093.25;5024042;28;20450;-78
2021/11/07 05:25:37;;;;;;;21.88;10.15;;;;;;;-0.92;100.00;96088.25;5028423;28;20045;-78
2021/11/07 05:28:03;;;;;;;21.40;9.23;;;;;;;-0.76;100.00;96087.22;5027787;28;20103;-78
2021/11/07 05:30:29;;;;;;;20.10;9.25;;;;;;;-0.79;100.00;96092.78;5029430;28;20095;-78
2021/11/07 05:32:54;;;;;;;25.50;11.35;;;;;;;-0.79;100.00;96098.75;5037186;28;20061;-79
2021/11/07 05:35:20;;;;;;;27.15;11.23;;;;;;;-0.77;100.00;96090.81;5024049;28;20052;-78
2021/11/07 05:37:50;;;;;;;25.45;10.88;;;;;;;-0.71;100.00;96084.91;5020961;28;20041;-79
2021/11/07 05:40:18;;;;;;;24.08;11.00;;;;;;;-0.78;100.00;96084.03;5022241;28;20103;-79
2021/11/07 05:42:44;;;;;;;26.98;12.13;;;;;;;-0.61;100.00;96069.88;5039881;28;20041;-79
2021/11/07 05:45:09;;;;;;;26.77;11.35;;;;;;;-0.67;100.00;96062.09;5051857;28;20109;-78
2021/11/07 05:47:36;;;;;;;23.35;10.43;;;;;;;-0.60;100.00;96056.00;5039586;28;20038;-79
2021/11/07 05:50:04;;;;;;;23.30;10.35;;;;;;;-0.68;100.00;96074.19;5039930;28;20723;-79
2021/11/07 05:52:29;;;;;;;26.40;10.45;;;;;;;-0.78;100.00;96084.84;5037277;28;20057;-79
2021/11/07 05:54:57;;;;;;;23.20;10.00;;;;;;;-0.75;100.00;96088.84;5040353;28;20041;-79
2021/11/07 05:57:22;;;;;;;19.77;9.52;;;;;;;-0.78;100.00;96078.88;5041934;28;20755;-79
2021/11/07 05:59:48;;;;;;;22.10;9.98;;;;;;;-0.78;100.00;96076.28;5043740;28;20142;-78
2021/11/07 06:02:14;;;;;;;21.45;9.25;;;;;;;-0.88;100.00;96064.47;5033636;28;20049;-78
2021/11/07 06:04:40;;;;;;;20.30;9.55;;;;;;;-0.93;100.00;96061.63;5046375;28;20034;-79
2021/11/07 06:07:05;;;;;;;20.52;9.73;;;;;;;-0.96;100.00;96051.66;5023771;28;20503;-78
2021/11/07 06:09:31;;;;;;;21.55;10.20;;;;;;;-1.06;100.00;96051.16;5023171;28;20042;-78
2021/11/07 06:11:56;;;;;;;22.48;9.75;;;;;;;-1.25;100.00;96050.75;5039554;28;20064;-79
2021/11/07 06:14:22;;;;;;;28.98;10.63;;;;;;;-1.38;100.00;96048.00;5028206;28;20120;-79
2021/11/07 06:16:48;;;;;;;20.50;10.07;;;;;;;-1.24;100.00;96049.75;5032691;28;20407;-78
2021/11/07 06:19:14;;;;;;;25.60;10.75;;;;;;;-1.05;100.00;96024.34;5043379;28;20053;-79
2021/11/07 06:21:41;;;;;;;20.35;9.20;;;;;;;-1.06;100.00;96005.47;5040931;28;20120;-78
2021/11/07 06:24:10;;;;;;;20.42;9.98;;;;;;;-1.05;100.00;96012.22;5023380;28;20049;-79
2021/11/07 06:26:36;;;;;;;20.25;9.10;;;;;;;-1.03;100.00;95995.72;5036235;28;20034;-78
2021/11/07 06:29:02;;;;;;;20.55;9.25;;;;;;;-1.02;100.00;95990.41;5043156;28;20068;-78
2021/11/07 06:31:28;;;;;;;17.52;7.53;;;;;;;-1.01;100.00;95981.66;5042331;28;20044;-78
2021/11/07 06:33:53;;;;;;;18.50;8.00;;;;;;;-1.06;100.00;95969.28;5040523;28;20434;-77
2021/11/07 06:36:19;;;;;;;16.65;7.90;;;;;;;-1.14;100.00;95976.38;5039963;28;20045;-77
2021/11/07 06:38:45;;;;;;;17.63;8.02;;;;;;;-1.12;100.00;95995.06;5035226;28;20048;-79
2021/11/07 06:41:11;;;;;;;21.80;8.98;;;;;;;-1.17;100.00;95997.41;5025078;28;20045;-77
2021/11/07 06:43:37;;;;;;;22.63;9.35;;;;;;;-1.07;100.00;96028.91;5038223;28;20720;-78
2021/11/07 06:46:03;;;;;;;18.92;7.88;;;;;;;-1.10;100.00;96044.75;5041680;28;20048;-78
2021/11/07 06:48:29;;;;;;;19.23;8.60;;;;;;;-1.13;100.00;96050.28;5040946;28;20079;-78
2021/11/07 06:50:56;;;;;;;18.42;8.60;;;;;;;-0.90;100.00;96048.34;5042393;28;20495;-78
2021/11/07 06:53:24;;;;;;;18.88;8.63;;;;;;;-1.04;100.00;96059.53;5036836;28;20049;-79
2021/11/07 06:55:50;;;;;;;19.80;8.95;;;;;;;-1.06;100.00;96080.38;5020951;28;20049;-79
2021/11/07 06:58:16;;;;;;;18.65;8.65;;;;;;;-0.98;100.00;96073.50;5041160;28;20061;-79
2021/11/07 07:00:42;;;;;;;20.50;9.65;;;;;;;-0.99;100.00;96062.38;5040591;28;20424;-78
2021/11/07 07:03:08;;;;;;;18.98;8.80;;;;;;;-0.89;100.00;96060.28;5041767;28;20041;-78
2021/11/07 07:05:33;;;;;;;19.55;8.93;;;;;;;-0.76;100.00;96066.56;5023124;28;20045;-79
2021/11/07 07:08:08;;;;;;;13.75;7.30;;;;;;;-0.69;100.00;96075.16;5022144;28;20049;-78
2021/11/07 07:10:43;;;;;;;19.00;8.65;;;;;;;-0.79;100.00;96092.78;5036380;28;20136;-79
2021/11/07 07:13:15;;;;;;;19.25;8.90;;;;;;;-0.58;100.00;96089.41;5026235;28;20071;-78
2021/11/07 07:15:44;;;;;;;18.05;8.02;;;;;;;-0.65;100.00;96091.91;5041408;28;20052;-78
2021/11/07 07:20:47;;;;;;;19.10;9.10;;;;;;;-0.47;100.00;96075.19;5040365;28;20059;-78
2021/11/07 07:28:52;;;;;;;17.15;8.45;;;;;;;-0.30;100.00;96061.03;5023554;28;20042;-79
2021/11/07 07:31:30;;;;;;;20.00;9.32;;;;;;;-0.16;100.00;96055.94;5040061;28;20649;-79
2021/11/07 07:34:07;;;;;;;18.05;8.68;;;;;;;-0.08;100.00;96058.41;5031301;28;20092;-77
2021/11/07 07:36:34;;;;;;;17.50;8.95;;;;;;;-0.15;100.00;96054.97;5051481;28;20083;-77
2021/11/07 07:39:00;;;;;;;18.33;8.43;;;;;;;-0.08;100.00;96060.97;5038571;28;20041;-78
2021/11/07 07:41:26;;;;;;;20.92;8.82;;;;;;;-0.04;100.00;96044.88;5038261;28;20503;-77
2021/11/07 07:43:52;;;;;;;19.23;8.68;;;;;;;0.08;100.00;96045.16;5037905;28;20046;-77
2021/11/07 07:46:19;;;;;;;19.58;9.05;;;;;;;0.02;100.00;96043.34;5038329;28;20048;-77
2021/11/07 07:48:46;;;;;;;18.63;8.73;;;;;;;-0.01;100.00;96038.53;5034922;28;20050;-77
2021/11/07 07:51:15;;;;;;;19.75;8.40;;;;;;;0.14;100.00;96028.88;5029170;28;20038;-77
2021/11/07 07:53:42;;;;;;;17.85;8.23;;;;;;;0.29;100.00;96027.97;5029111;28;20111;-77
2021/11/07 07:56:09;;;;;;;17.17;8.90;;;;;;;0.41;100.00;96036.78;5018155;28;20038;-78
2021/11/07 07:58:37;;;;;;;16.75;8.13;;;;;;;0.44;100.00;96026.03;5035874;28;20596;-76
2021/11/07 08:01:04;;;;;;;16.27;7.97;;;;;;;0.52;100.00;96018.09;5024707;28;20042;-76
2021/11/07 08:03:30;;;;;;;18.52;8.18;;;;;;;0.72;100.00;96012.22;5030743;28;20033;-77
2021/11/07 08:05:56;;;;;;;18.92;8.88;;;;;;;0.57;100.00;96001.19;5027597;28;20109;-76
2021/11/07 08:08:22;;;;;;;16.23;7.43;;;;;;;0.79;99.58;95994.88;5024464;28;20530;-75
2021/11/07 08:10:48;;;;;;;17.17;8.18;;;;;;;0.85;100.00;96001.88;5033484;28;20575;-76
2021/11/07 08:13:13;;;;;;;18.92;8.23;;;;;;;0.77;100.00;96009.03;5037876;28;20046;-77
2021/11/07 08:15:39;;;;;;;21.95;9.15;;;;;;;0.97;100.00;95994.31;5035191;28;20064;-77
2021/11/07 08:18:05;;;;;;;18.17;7.97;;;;;;;1.11;99.21;96002.94;5035024;28;20038;-76
2021/11/07 08:20:30;;;;;;;16.77;8.05;;;;;;;1.14;98.16;95992.16;5030623;28;20072;-77
2021/11/07 08:22:56;;;;;;;16.70;7.85;;;;;;;1.27;98.60;95980.22;5015420;28;20108;-76
2021/11/07 08:25:23;;;;;;;18.17;8.45;;;;;;;1.52;95.61;95981.22;5029616;28;20115;-76
2021/11/07 08:27:56;;;;;;;17.63;8.40;;;;;;;1.63;95.40;95971.22;5032391;28;20091;-77
2021/11/07 08:30:25;;;;;;;12.85;6.72;;;;;;;1.77;92.58;95972.81;5034738;28;20076;-76
2021/11/07 08:32:50;;;;;;;16.48;7.43;;;;;;;1.87;93.69;95957.63;5034732;28;20048;-76
2021/11/07 08:35:16;;;;;;;16.20;7.40;;;;;;;1.93;92.49;95957.81;5033892;28;20049;-77
2021/11/07 08:37:55;;;;;;;13.82;6.65;;;;;;;2.08;93.71;95948.78;5035774;28;20593;-78
2021/11/07 08:40:30;;;;;;;13.55;6.53;;;;;;;2.13;92.39;95955.94;5039897;28;20045;-78
2021/11/07 09:04:40;;;;;;;11.90;5.50;;;;;;;3.06;86.12;95953.88;5024200;28;20038;-78
2021/11/07 09:07:16;;;;;;;9.55;4.80;;;;;;;3.43;83.04;95939.22;5011689;28;20080;-80
2021/11/07 09:09:43;;;;;;;11.38;4.82;;;;;;;3.37;83.04;95923.66;5012369;28;20684;-77
2021/11/07 09:12:10;;;;;;;10.25;5.00;;;;;;;3.53;83.25;95912.69;5014588;28;20740;-77
2021/11/07 09:14:38;;;;;;;8.88;4.53;;;;;;;3.68;83.84;95903.75;5011837;28;20037;-78
2021/11/07 09:17:13;;;;;;;9.93;4.88;;;;;;;3.72;82.78;95902.31;5029542;28;20073;-77
2021/11/07 09:19:40;;;;;;;9.43;4.30;;;;;;;3.73;83.24;95885.69;5030678;28;20085;-76
2021/11/07 09:24:43;;;;;;;11.05;4.95;;;;;;;4.20;79.22;95885.19;5021368;28;20524;-77
2021/11/07 09:27:16;;;;;;;9.90;4.10;;;;;;;4.53;79.21;95874.31;5039115;28;20046;-77
2021/11/07 09:29:48;;;;;;;7.35;3.50;;;;;;;5.08;75.08;95875.13;5009348;28;20503;-76
2021/11/07 09:32:29;;;;;;;7.00;3.60;;;;;;;6.53;70.46;95858.78;5025616;28;20049;-76
2021/11/07 09:40:26;;;;;;;4.47;2.55;;;;;;;7.90;60.34;95834.09;5028411;28;20053;-77
2021/11/07 09:43:08;;;;;;;5.25;2.75;;;;;;;8.65;59.89;95824.69;5020309;28;20051;-77
2021/11/07 09:45:47;;;;;;;4.55;2.65;;;;;;;8.81;57.77;95812.50;5026816;28;20118;-78
2021/11/07 09:48:23;;;;;;;5.22;2.60;;;;;;;8.95;58.21;95817.31;5027638;28;20045;-78
2021/11/07 09:50:50;;;;;;;5.95;2.65;;;;;;;9.69;56.99;95821.72;5027901;28;20053;-79
2021/11/07 09:53:15;;;;;;;5.15;2.38;;;;;;;9.70;55.85;95809.41;5027987;28;20076;-78
2021/11/07 09:55:43;;;;;;;3.75;2.20;;;;;;;9.54;55.75;95801.44;5022795;28;20073;-78
2021/11/07 09:58:09;;;;;;;4.40;2.47;;;;;;;9.79;56.16;95799.97;5026954;28;20050;-76
2021/11/07 10:00:42;;;;;;;3.80;2.50;;;;;;;10.23;52.78;95815.38;5023745;28;20151;-76
2021/11/07 10:03:12;;;;;;;3.75;2.10;;;;;;;9.78;53.55;95808.88;5007762;28;20136;-76
2021/11/07 10:05:47;;;;;;;4.78;2.28;;;;;;;9.87;53.56;95807.34;5030212;28;20045;-77
2021/11/07 10:08:14;;;;;;;3.30;1.88;;;;;;;10.69;50.22;95806.00;5045723;28;20049;-76
2021/11/07 10:10:51;;;;;;;3.63;2.00;;;;;;;10.53;51.77;95803.34;5021699;28;20159;-76
2021/11/07 10:13:24;;;;;;;3.00;1.80;;;;;;;10.40;49.86;95814.38;5010322;28;20052;-76
2021/11/07 10:16:07;;;;;;;3.90;1.90;;;;;;;10.07;52.12;95811.13;5010749;28;20052;-76
2021/11/07 10:19:01;;;;;;;2.40;1.55;;;;;;;10.01;50.83;95807.69;5012934;28;20667;-76
2021/11/07 10:21:27;;;;;;;3.30;1.90;;;;;;;10.07;50.87;95805.88;5029413;28;20057;-76
2021/11/07 10:24:10;;;;;;;4.53;2.00;;;;;;;9.60;50.18;95806.72;5028515;28;20483;-76
2021/11/07 10:26:38;;;;;;;3.22;1.75;;;;;;;9.53;52.78;95806.94;5027981;28;20045;-76
2021/11/07 10:29:06;;;;;;;3.05;1.65;;;;;;;9.29;53.49;95802.06;5030381;28;20046;-77
2021/11/07 10:31:42;;;;;;;2.53;1.70;;;;;;;9.56;52.30;95816.16;5030128;28;20069;-76
2021/11/07 10:42:42;;;;;;;1.83;1.42;;;;;;;10.23;47.60;95825.88;5014516;28;20045;-76
2021/11/07 10:45:20;;;;;;;2.85;1.60;;;;;;;9.82;47.99;95815.22;5032589;28;20096;-76
2021/11/07 10:53:23;;;;;;;3.17;1.52;;;;;;;8.90;49.20;95785.81;5029759;28;20060;-76
2021/11/07 10:55:52;;;;;;;3.00;1.67;;;;;;;8.67;51.38;95785.09;5031822;28;20041;-79
2021/11/07 10:58:28;;;;;;;3.78;1.70;;;;;;;10.74;46.62;95771.78;5027375;28;20206;-76
2021/11/07 11:00:55;;;;;;;2.85;1.50;;;;;;;9.79;46.39;95767.63;5031754;28;20053;-76
2021/11/07 11:03:23;;;;;;;2.42;1.60;;;;;;;9.23;49.13;95744.53;5030431;28;20112;-76
2021/11/07 11:06:12;;;;;;;3.30;1.85;;;;;;;9.10;49.21;95741.31;5015198;28;20046;-77
2021/11/07 11:09:00;;;;;;;3.17;1.65;;;;;;;8.54;50.29;95761.91;5037977;28;20590;-77
2021/11/07 11:11:35;;;;;;;2.97;1.75;;;;;;;8.60;51.46;95774.03;5032990;28;20095;-77
2021/11/07 11:14:11;;;;;;;2.42;1.52;;;;;;;8.61;51.95;95773.00;5033487;28;20041;-76
2021/11/07 11:16:45;;;;;;;2.50;1.48;;;;;;;9.57;49.05;95770.41;5033159;28;20057;-76
2021/11/07 11:22:35;;;;;;;2.55;1.60;;;;;;;11.33;43.07;95751.16;5025988;28;20050;-77
2021/11/07 11:30:22;;;;;;;2.22;1.45;;;;;;;12.38;40.81;95753.88;5034230;28;20054;-77
2021/11/07 11:41:04;;;;;;;4.63;1.65;;;;;;;11.78;41.35;95752.84;5029452;28;20410;-76
2021/11/07 11:43:40;;;;;;;2.78;1.80;;;;;;;11.73;41.05;95749.44;5029758;28;20093;-75
2021/11/07 11:46:28;;;;;;;3.20;1.90;;;;;;;12.55;41.63;95749.00;5030084;28;20045;-76
2021/11/07 11:49:35;;;;;;;3.40;1.88;;;;;;;12.88;39.50;95746.63;5029553;28;20451;-75
2021/11/07 11:57:31;;;;;;;2.40;1.67;;;;;;;13.42;39.34;95744.00;5047134;28;20030;-75
2021/11/07 12:03:12;;;;;;;2.70;1.70;;;;;;;13.63;38.39;95716.28;5053724;28;20033;-73
2021/11/07 12:05:50;;;;;;;2.97;1.70;;;;;;;13.81;38.84;95708.66;5058402;28;20033;-75
2021/11/07 12:08:30;;;;;;;3.33;1.80;;;;;;;13.98;37.29;95698.38;5056644;28;20040;-74
2021/11/07 12:11:30;;;;;;;3.47;1.70;;;;;;;13.64;38.02;95683.47;5056705;28;20041;-74
2021/11/07 12:14:08;;;;;;;3.53;1.88;;;;;;;13.58;39.40;95668.75;5055639;28;20041;-76
2021/11/07 12:16:57;;;;;;;3.80;1.90;;;;;;;12.73;39.54;95667.53;5055729;28;20037;-74
2021/11/07 12:19:33;;;;;;;3.22;2.00;;;;;;;13.30;38.43;95663.25;5048769;28;20072;-74
2021/11/07 12:22:11;;;;;;;3.63;1.95;;;;;;;14.11;38.85;95659.03;5048220;28;20038;-76
2021/11/07 12:24:49;;;;;;;3.33;1.90;;;;;;;13.95;38.69;95656.59;5031995;28;20044;-76
2021/11/07 12:27:41;;;;;;;3.47;2.08;;;;;;;14.14;36.88;95648.66;5043583;28;20041;-79
2021/11/07 12:30:24;;;;;;;3.97;2.13;;;;;;;14.01;37.25;95638.81;5033850;28;20045;-80
2021/11/07 12:33:17;;;;;;;3.53;2.05;;;;;;;14.06;38.29;95637.94;5039458;28;20040;-79
2021/11/07 12:35:49;;;;;;;5.18;1.92;;;;;;;14.10;37.00;95636.28;5032535;28;20791;-76
2021/11/07 12:41:05;;;;;;;3.45;1.90;;;;;;;12.56;38.18;95639.69;5019506;28;20050;-77
2021/11/07 12:43:31;;;;;;;3.92;1.90;;;;;;;12.38;37.25;95637.75;5027447;28;20113;-77
2021/11/07 12:46:10;;;;;;;4.13;1.90;;;;;;;12.08;39.82;95634.28;5031214;28;20120;-76
2021/11/07 12:48:50;;;;;;;3.05;1.63;;;;;;;12.15;36.56;95645.31;5046659;28;20690;-77
2021/11/07 12:51:20;;;;;;;2.88;1.63;;;;;;;11.99;37.23;95649.91;5032713;28;20073;-77
2021/11/07 12:54:06;;;;;;;2.80;1.60;;;;;;;11.42;39.07;95650.22;5032441;28;20049;-77
2021/11/07 12:56:41;;;;;;;2.65;1.60;;;;;;;11.45;39.42;95648.91;5023354;28;20565;-78
2021/11/07 12:59:12;;;;;;;5.70;1.83;;;;;;;11.19;40.54;95641.09;5048096;28;20049;-78
2021/11/07 13:02:06;;;;;;;3.92;1.90;;;;;;;10.57;40.91;95646.53;5030321;28;20042;-77
2021/11/07 13:04:48;;;;;;;3.47;1.73;;;;;;;10.58;41.59;95637.56;5033171;28;20049;-78
2021/11/07 13:07:59;;;;;;;3.30;1.90;;;;;;;10.53;43.41;95645.47;5030046;28;20056;-78
2021/11/07 13:10:43;;;;;;;1.70;1.38;;;;;;;10.88;39.47;95646.44;5031129;28;20497;-77
2021/11/07 13:26:02;;;;;;;3.63;1.70;;;;;;;9.70;44.07;95643.84;5025968;28;20583;-77
2021/11/07 13:29:33;;;;;;;3.60;1.95;;;;;;;9.75;43.83;95641.19;5037842;28;20042;-76
2021/11/07 13:31:28;;;;;;;4.32;2.10;;;;;;;9.69;44.06;95637.00;5010059;28;20053;-77
2021/11/07 13:34:09;;;;;;;3.42;1.80;;;;;;;9.69;45.05;95631.72;5025318;28;20044;-76
2021/11/07 13:36:41;;;;;;;5.03;1.75;;;;;;;9.78;44.79;95630.16;5021540;28;20065;-75
2021/11/07 13:39:07;;;;;;;3.72;1.80;;;;;;;9.64;44.94;95623.84;5024298;28;20045;-76
2021/11/07 13:41:33;;;;;;;2.58;1.60;;;;;;;9.62;42.25;95625.94;5026531;28;20072;-76
2021/11/07 13:44:06;;;;;;;3.90;1.95;;;;;;;9.60;42.83;95617.53;5026157;28;20121;-76
2021/11/07 13:46:35;;;;;;;5.60;3.35;;;;;;;9.79;41.34;95615.19;5028521;28;20049;-77